sensor_id;sensor_type;location;lat;lon;timestamp;P1;durP1;ratioP1;P2;durP2;ratioP2
60873;SDS011;46715;40.642;-7.920;2024-01-15T00:01:21;16.10;;;9.13;;
60873;SDS011;46715;40.642;-7.920;2024-01-15T00:03:22;11.77;;;8.65;;
60873;SDS011;46715;40.642;-7.920;2024-01-15T00:05:23;9.43;;;7.70;;
60873;SDS011;46715;40.642;-7.920;2024-01-15T00:07:24;8.73;;;6.53;;
60873;SDS011;46715;40.642;-7.920;2024-01-15T00:09:25;13.63;;;6.83;;
60873;SDS011;46715;40.642;-7.920;2024-01-15T00:11:27;6.15;;;4.78;;
60873;SDS011;46715;40.642;-7.920;2024-01-15T00:13:28;11.73;;;7.70;;
60873;SDS011;46715;40.642;-7.920;2024-01-15T00:15:31;11.23;;;5.93;;
60873;SDS011;46715;40.642;-7.920;2024-01-15T00:17:32;10.70;;;6.45;;
60873;SDS011;46715;40.642;-7.920;2024-01-15T00:26:39;9.55;;;6.00;;
60873;SDS011;46715;40.642;-7.920;2024-01-15T00:28:40;10.05;;;6.60;;
60873;SDS011;46715;40.642;-7.920;2024-01-15T00:30:41;19.40;;;9.13;;
60873;SDS011;46715;40.642;-7.920;2024-01-15T00:32:48;13.02;;;7.10;;
60873;SDS011;46715;40.642;-7.920;2024-01-15T00:34:49;20.95;;;11.32;;
60873;SDS011;46715;40.642;-7.920;2024-01-15T00:36:51;16.83;;;10.73;;
60873;SDS011;46715;40.642;-7.920;2024-01-15T00:38:52;20.27;;;9.10;;
60873;SDS011;46715;40.642;-7.920;2024-01-15T00:49:59;3.85;;;2.70;;
60873;SDS011;46715;40.642;-7.920;2024-01-15T00:52:00;5.47;;;2.80;;
60873;SDS011;46715;40.642;-7.920;2024-01-15T00:54:16;3.65;;;2.60;;
60873;SDS011;46715;40.642;-7.920;2024-01-15T00:56:17;2.95;;;2.00;;
60873;SDS011;46715;40.642;-7.920;2024-01-15T00:58:18;4.93;;;2.13;;
60873;SDS011;46715;40.642;-7.920;2024-01-15T01:00:19;3.88;;;2.20;;
60873;SDS011;46715;40.642;-7.920;2024-01-15T01:02:20;5.73;;;2.87;;
60873;SDS011;46715;40.642;-7.920;2024-01-15T01:04:21;7.07;;;2.37;;
60873;SDS011;46715;40.642;-7.920;2024-01-15T01:06:21;5.70;;;3.30;;
60873;SDS011;46715;40.642;-7.920;2024-01-15T01:08:22;5.13;;;3.07;;
60873;SDS011;46715;40.642;-7.920;2024-01-15T01:10:23;1.87;;;1.67;;
60873;SDS011;46715;40.642;-7.920;2024-01-15T01:15:50;2.50;;;1.92;;
60873;SDS011;46715;40.642;-7.920;2024-01-15T01:17:57;1.98;;;1.50;;
60873;SDS011;46715;40.642;-7.920;2024-01-15T01:53:27;21.60;;;3.13;;
60873;SDS011;46715;40.642;-7.920;2024-01-15T01:55:29;5.82;;;2.30;;
60873;SDS011;46715;40.642;-7.920;2024-01-15T01:57:33;10.88;;;2.13;;
60873;SDS011;46715;40.642;-7.920;2024-01-15T01:59:35;45.70;;;3.80;;
60873;SDS011;46715;40.642;-7.920;2024-01-15T02:01:36;94.95;;;6.97;;
60873;SDS011;46715;40.642;-7.920;2024-01-15T02:03:39;106.28;;;8.80;;
60873;SDS011;46715;40.642;-7.920;2024-01-15T02:05:40;106.15;;;8.25;;
60873;SDS011;46715;40.642;-7.920;2024-01-15T02:07:43;93.00;;;6.38;;
60873;SDS011;46715;40.642;-7.920;2024-01-15T02:15:37;52.45;;;4.70;;
60873;SDS011;46715;40.642;-7.920;2024-01-15T02:20:04;86.75;;;6.82;;
60873;SDS011;46715;40.642;-7.920;2024-01-15T02:22:06;151.60;;;11.85;;
60873;SDS011;46715;40.642;-7.920;2024-01-15T02:24:07;265.13;;;15.77;;
60873;SDS011;46715;40.642;-7.920;2024-01-15T02:26:08;193.73;;;14.45;;
60873;SDS011;46715;40.642;-7.920;2024-01-15T02:28:09;132.38;;;10.93;;
60873;SDS011;46715;40.642;-7.920;2024-01-15T02:30:11;216.80;;;17.00;;
60873;SDS011;46715;40.642;-7.920;2024-01-15T02:32:13;280.92;;;19.83;;
60873;SDS011;46715;40.642;-7.920;2024-01-15T02:34:14;186.63;;;11.88;;
60873;SDS011;46715;40.642;-7.920;2024-01-15T02:36:15;133.10;;;10.23;;
60873;SDS011;46715;40.642;-7.920;2024-01-15T02:40:17;18.23;;;3.60;;
60873;SDS011;46715;40.642;-7.920;2024-01-15T02:42:18;9.73;;;3.23;;
60873;SDS011;46715;40.642;-7.920;2024-01-15T02:44:18;8.20;;;3.03;;
60873;SDS011;46715;40.642;-7.920;2024-01-15T02:46:19;8.45;;;3.67;;
60873;SDS011;46715;40.642;-7.920;2024-01-15T02:48:20;26.80;;;5.90;;
60873;SDS011;46715;40.642;-7.920;2024-01-15T02:50:21;13.83;;;4.33;;
60873;SDS011;46715;40.642;-7.920;2024-01-15T02:52:22;9.77;;;3.93;;
60873;SDS011;46715;40.642;-7.920;2024-01-15T02:54:22;11.90;;;4.18;;
60873;SDS011;46715;40.642;-7.920;2024-01-15T02:56:23;9.33;;;3.30;;
60873;SDS011;46715;40.642;-7.920;2024-01-15T02:58:24;15.63;;;3.93;;
60873;SDS011;46715;40.642;-7.920;2024-01-15T03:00:25;16.13;;;3.30;;
60873;SDS011;46715;40.642;-7.920;2024-01-15T03:02:26;16.17;;;3.63;;
60873;SDS011;46715;40.642;-7.920;2024-01-15T03:04:26;9.70;;;3.60;;
60873;SDS011;46715;40.642;-7.920;2024-01-15T03:06:27;17.63;;;3.57;;
60873;SDS011;46715;40.642;-7.920;2024-01-15T03:08:28;8.33;;;3.10;;
60873;SDS011;46715;40.642;-7.920;2024-01-15T03:10:29;7.75;;;3.15;;
60873;SDS011;46715;40.642;-7.920;2024-01-15T03:12:30;10.20;;;3.07;;
60873;SDS011;46715;40.642;-7.920;2024-01-15T03:14:34;13.10;;;3.45;;
60873;SDS011;46715;40.642;-7.920;2024-01-15T03:16:38;13.82;;;3.72;;
60873;SDS011;46715;40.642;-7.920;2024-01-15T03:18:42;9.85;;;3.55;;
60873;SDS011;46715;40.642;-7.920;2024-01-15T03:20:52;11.45;;;4.22;;
60873;SDS011;46715;40.642;-7.920;2024-01-15T03:27:40;11.63;;;3.85;;
60873;SDS011;46715;40.642;-7.920;2024-01-15T03:29:41;15.00;;;4.40;;
60873;SDS011;46715;40.642;-7.920;2024-01-15T03:31:42;12.55;;;3.60;;
60873;SDS011;46715;40.642;-7.920;2024-01-15T03:33:48;9.52;;;2.95;;
60873;SDS011;46715;40.642;-7.920;2024-01-15T03:35:49;12.82;;;3.10;;
60873;SDS011;46715;40.642;-7.920;2024-01-15T05:25:38;13.77;;;2.50;;
60873;SDS011;46715;40.642;-7.920;2024-01-15T05:35:55;22.73;;;3.20;;
60873;SDS011;46715;40.642;-7.920;2024-01-15T06:23:14;2.78;;;0.82;;
60873;SDS011;46715;40.642;-7.920;2024-01-15T06:25:24;2.05;;;0.60;;
60873;SDS011;46715;40.642;-7.920;2024-01-15T06:27:24;3.10;;;0.80;;
60873;SDS011;46715;40.642;-7.920;2024-01-15T06:29:25;2.43;;;0.87;;
60873;SDS011;46715;40.642;-7.920;2024-01-15T06:31:27;3.50;;;0.80;;
60873;SDS011;46715;40.642;-7.920;2024-01-15T06:33:28;6.70;;;1.43;;
60873;SDS011;46715;40.642;-7.920;2024-01-15T06:35:29;4.67;;;1.43;;
60873;SDS011;46715;40.642;-7.920;2024-01-15T06:37:30;2.93;;;1.07;;
60873;SDS011;46715;40.642;-7.920;2024-01-15T06:39:31;5.28;;;1.25;;
60873;SDS011;46715;40.642;-7.920;2024-01-15T06:41:31;5.55;;;1.70;;
60873;SDS011;46715;40.642;-7.920;2024-01-15T06:43:32;7.97;;;2.23;;
60873;SDS011;46715;40.642;-7.920;2024-01-15T06:45:33;10.03;;;2.10;;
60873;SDS011;46715;40.642;-7.920;2024-01-15T06:47:34;11.67;;;2.23;;
60873;SDS011;46715;40.642;-7.920;2024-01-15T06:49:34;14.60;;;2.60;;
60873;SDS011;46715;40.642;-7.920;2024-01-15T06:51:35;10.10;;;2.40;;
60873;SDS011;46715;40.642;-7.920;2024-01-15T06:53:36;8.38;;;2.08;;
60873;SDS011;46715;40.642;-7.920;2024-01-15T06:55:38;8.57;;;1.67;;
60873;SDS011;46715;40.642;-7.920;2024-01-15T06:57:39;9.38;;;1.73;;
60873;SDS011;46715;40.642;-7.920;2024-01-15T06:59:40;11.53;;;1.73;;
60873;SDS011;46715;40.642;-7.920;2024-01-15T07:01:41;9.52;;;1.90;;
60873;SDS011;46715;40.642;-7.920;2024-01-15T07:03:42;6.90;;;1.93;;
60873;SDS011;46715;40.642;-7.920;2024-01-15T07:05:43;9.30;;;2.13;;
60873;SDS011;46715;40.642;-7.920;2024-01-15T07:07:43;7.77;;;1.80;;
60873;SDS011;46715;40.642;-7.920;2024-01-15T07:09:44;4.37;;;1.57;;
60873;SDS011;46715;40.642;-7.920;2024-01-15T07:11:52;6.88;;;1.70;;
60873;SDS011;46715;40.642;-7.920;2024-01-15T07:14:00;9.35;;;2.00;;
60873;SDS011;46715;40.642;-7.920;2024-01-15T07:16:01;12.20;;;2.20;;
60873;SDS011;46715;40.642;-7.920;2024-01-15T07:21:38;7.70;;;2.47;;
60873;SDS011;46715;40.642;-7.920;2024-01-15T07:35:42;3.25;;;1.30;;
60873;SDS011;46715;40.642;-7.920;2024-01-15T07:37:43;9.03;;;1.63;;
60873;SDS011;46715;40.642;-7.920;2024-01-15T07:39:49;6.75;;;2.28;;
60873;SDS011;46715;40.642;-7.920;2024-01-15T07:41:50;9.48;;;1.83;;
60873;SDS011;46715;40.642;-7.920;2024-01-15T07:43:53;7.15;;;1.60;;
60873;SDS011;46715;40.642;-7.920;2024-01-15T07:45:54;8.77;;;2.13;;
60873;SDS011;46715;40.642;-7.920;2024-01-15T07:47:55;6.28;;;1.77;;
60873;SDS011;46715;40.642;-7.920;2024-01-15T07:49:55;13.70;;;2.30;;
60873;SDS011;46715;40.642;-7.920;2024-01-15T07:51:56;13.83;;;2.37;;
60873;SDS011;46715;40.642;-7.920;2024-01-15T07:53:57;20.88;;;3.13;;
60873;SDS011;46715;40.642;-7.920;2024-01-15T07:55:58;25.37;;;3.00;;
60873;SDS011;46715;40.642;-7.920;2024-01-15T07:57:59;12.23;;;2.35;;
60873;SDS011;46715;40.642;-7.920;2024-01-15T08:00:02;5.03;;;1.95;;
60873;SDS011;46715;40.642;-7.920;2024-01-15T08:02:06;10.32;;;2.05;;
60873;SDS011;46715;40.642;-7.920;2024-01-15T08:04:07;11.32;;;2.65;;
60873;SDS011;46715;40.642;-7.920;2024-01-15T08:08:19;4.15;;;1.98;;
60873;SDS011;46715;40.642;-7.920;2024-01-15T08:10:27;9.82;;;2.63;;
60873;SDS011;46715;40.642;-7.920;2024-01-15T08:12:29;12.23;;;3.05;;
60873;SDS011;46715;40.642;-7.920;2024-01-15T08:14:30;9.97;;;3.30;;
60873;SDS011;46715;40.642;-7.920;2024-01-15T08:16:30;8.10;;;2.63;;
60873;SDS011;46715;40.642;-7.920;2024-01-15T08:18:31;15.83;;;3.93;;
60873;SDS011;46715;40.642;-7.920;2024-01-15T08:20:32;9.47;;;3.43;;
60873;SDS011;46715;40.642;-7.920;2024-01-15T08:22:33;34.23;;;4.50;;
60873;SDS011;46715;40.642;-7.920;2024-01-15T08:24:34;10.00;;;3.80;;
60873;SDS011;46715;40.642;-7.920;2024-01-15T08:26:34;13.33;;;3.63;;
60873;SDS011;46715;40.642;-7.920;2024-01-15T08:28:35;9.70;;;3.13;;
60873;SDS011;46715;40.642;-7.920;2024-01-15T08:30:36;7.13;;;2.58;;
60873;SDS011;46715;40.642;-7.920;2024-01-15T08:32:37;5.90;;;2.40;;
60873;SDS011;46715;40.642;-7.920;2024-01-15T08:34:42;4.18;;;1.85;;
60873;SDS011;46715;40.642;-7.920;2024-01-15T08:36:43;6.60;;;2.17;;
60873;SDS011;46715;40.642;-7.920;2024-01-15T08:38:44;6.17;;;2.00;;
60873;SDS011;46715;40.642;-7.920;2024-01-15T08:40:45;9.13;;;2.03;;
60873;SDS011;46715;40.642;-7.920;2024-01-15T08:42:46;7.57;;;2.70;;
60873;SDS011;46715;40.642;-7.920;2024-01-15T08:44:47;6.75;;;2.70;;
60873;SDS011;46715;40.642;-7.920;2024-01-15T08:46:48;13.90;;;3.53;;
60873;SDS011;46715;40.642;-7.920;2024-01-15T08:48:49;13.10;;;3.47;;
60873;SDS011;46715;40.642;-7.920;2024-01-15T08:50:50;9.90;;;3.33;;
60873;SDS011;46715;40.642;-7.920;2024-01-15T08:52:54;10.70;;;2.88;;
60873;SDS011;46715;40.642;-7.920;2024-01-15T08:54:57;13.30;;;3.30;;
60873;SDS011;46715;40.642;-7.920;2024-01-15T08:56:58;16.75;;;3.63;;
60873;SDS011;46715;40.642;-7.920;2024-01-15T09:01:00;14.15;;;3.70;;
60873;SDS011;46715;40.642;-7.920;2024-01-15T09:03:01;13.17;;;3.70;;
60873;SDS011;46715;40.642;-7.920;2024-01-15T09:05:05;10.20;;;3.78;;
60873;SDS011;46715;40.642;-7.920;2024-01-15T09:12:30;10.70;;;3.20;;
60873;SDS011;46715;40.642;-7.920;2024-01-15T09:14:31;14.47;;;3.83;;
60873;SDS011;46715;40.642;-7.920;2024-01-15T09:16:34;8.25;;;2.78;;
60873;SDS011;46715;40.642;-7.920;2024-01-15T09:18:36;14.38;;;3.50;;
60873;SDS011;46715;40.642;-7.920;2024-01-15T09:20:36;11.80;;;3.70;;
60873;SDS011;46715;40.642;-7.920;2024-01-15T09:22:38;11.77;;;3.90;;
60873;SDS011;46715;40.642;-7.920;2024-01-15T09:24:41;19.65;;;4.45;;
60873;SDS011;46715;40.642;-7.920;2024-01-15T09:26:42;17.55;;;4.60;;
60873;SDS011;46715;40.642;-7.920;2024-01-15T09:28:43;17.83;;;4.27;;
60873;SDS011;46715;40.642;-7.920;2024-01-15T09:30:44;22.00;;;4.00;;
60873;SDS011;46715;40.642;-7.920;2024-01-15T09:32:45;21.65;;;4.93;;
60873;SDS011;46715;40.642;-7.920;2024-01-15T09:34:49;23.17;;;5.60;;
60873;SDS011;46715;40.642;-7.920;2024-01-15T09:36:51;32.10;;;5.65;;
60873;SDS011;46715;40.642;-7.920;2024-01-15T09:38:54;23.52;;;6.07;;
60873;SDS011;46715;40.642;-7.920;2024-01-15T09:41:07;25.08;;;5.85;;
60873;SDS011;46715;40.642;-7.920;2024-01-15T09:43:08;20.90;;;5.90;;
60873;SDS011;46715;40.642;-7.920;2024-01-15T09:45:09;34.27;;;5.70;;
60873;SDS011;46715;40.642;-7.920;2024-01-15T09:47:10;25.75;;;5.93;;
60873;SDS011;46715;40.642;-7.920;2024-01-15T09:49:11;22.17;;;6.07;;
60873;SDS011;46715;40.642;-7.920;2024-01-15T09:51:12;20.25;;;4.65;;
60873;SDS011;46715;40.642;-7.920;2024-01-15T09:53:14;28.98;;;6.00;;
60873;SDS011;46715;40.642;-7.920;2024-01-15T09:55:17;23.92;;;5.75;;
60873;SDS011;46715;40.642;-7.920;2024-01-15T09:57:18;16.42;;;3.63;;
60873;SDS011;46715;40.642;-7.920;2024-01-15T09:59:19;17.33;;;4.07;;
60873;SDS011;46715;40.642;-7.920;2024-01-15T10:01:20;13.20;;;2.95;;
60873;SDS011;46715;40.642;-7.920;2024-01-15T10:03:22;9.63;;;2.72;;
60873;SDS011;46715;40.642;-7.920;2024-01-15T10:05:23;8.17;;;3.20;;
60873;SDS011;46715;40.642;-7.920;2024-01-15T10:07:24;11.73;;;2.80;;
60873;SDS011;46715;40.642;-7.920;2024-01-15T10:09:26;16.58;;;3.40;;
60873;SDS011;46715;40.642;-7.920;2024-01-15T10:11:27;14.15;;;3.60;;
60873;SDS011;46715;40.642;-7.920;2024-01-15T10:13:28;13.68;;;3.00;;
60873;SDS011;46715;40.642;-7.920;2024-01-15T10:15:33;12.68;;;2.75;;
60873;SDS011;46715;40.642;-7.920;2024-01-15T10:17:38;12.63;;;2.72;;
60873;SDS011;46715;40.642;-7.920;2024-01-15T10:19:42;13.95;;;2.80;;
60873;SDS011;46715;40.642;-7.920;2024-01-15T10:21:43;10.45;;;3.03;;
60873;SDS011;46715;40.642;-7.920;2024-01-15T10:23:44;14.10;;;3.25;;
60873;SDS011;46715;40.642;-7.920;2024-01-15T10:25:45;9.13;;;3.43;;
60873;SDS011;46715;40.642;-7.920;2024-01-15T10:32:00;8.90;;;3.40;;
60873;SDS011;46715;40.642;-7.920;2024-01-15T10:34:11;11.05;;;3.25;;
60873;SDS011;46715;40.642;-7.920;2024-01-15T10:36:13;12.68;;;3.15;;
60873;SDS011;46715;40.642;-7.920;2024-01-15T10:38:13;12.32;;;2.85;;
60873;SDS011;46715;40.642;-7.920;2024-01-15T10:40:15;10.68;;;2.60;;
60873;SDS011;46715;40.642;-7.920;2024-01-15T10:42:16;12.60;;;3.50;;
60873;SDS011;46715;40.642;-7.920;2024-01-15T10:44:18;10.52;;;4.10;;
60873;SDS011;46715;40.642;-7.920;2024-01-15T10:46:19;9.25;;;2.47;;
60873;SDS011;46715;40.642;-7.920;2024-01-15T10:48:20;11.23;;;4.38;;
60873;SDS011;46715;40.642;-7.920;2024-01-15T10:50:21;8.33;;;3.83;;
60873;SDS011;46715;40.642;-7.920;2024-01-15T10:52:22;12.65;;;3.08;;
60873;SDS011;46715;40.642;-7.920;2024-01-15T10:54:23;8.63;;;2.65;;
60873;SDS011;46715;40.642;-7.920;2024-01-15T10:56:25;12.05;;;2.92;;
60873;SDS011;46715;40.642;-7.920;2024-01-15T10:58:28;8.68;;;3.55;;
60873;SDS011;46715;40.642;-7.920;2024-01-15T11:00:31;11.98;;;3.33;;
60873;SDS011;46715;40.642;-7.920;2024-01-15T11:02:32;14.35;;;4.07;;
60873;SDS011;46715;40.642;-7.920;2024-01-15T11:04:36;8.32;;;2.92;;
60873;SDS011;46715;40.642;-7.920;2024-01-15T11:06:44;6.80;;;3.23;;
60873;SDS011;46715;40.642;-7.920;2024-01-15T11:08:49;11.80;;;4.80;;
60873;SDS011;46715;40.642;-7.920;2024-01-15T11:10:51;11.23;;;4.53;;
60873;SDS011;46715;40.642;-7.920;2024-01-15T11:12:52;11.80;;;5.03;;
60873;SDS011;46715;40.642;-7.920;2024-01-15T11:14:59;7.20;;;2.53;;
60873;SDS011;46715;40.642;-7.920;2024-01-15T11:17:05;8.70;;;3.80;;
60873;SDS011;46715;40.642;-7.920;2024-01-15T11:19:06;12.60;;;4.50;;
60873;SDS011;46715;40.642;-7.920;2024-01-15T11:23:41;9.30;;;3.80;;
60873;SDS011;46715;40.642;-7.920;2024-01-15T11:25:44;12.80;;;3.78;;
60873;SDS011;46715;40.642;-7.920;2024-01-15T11:27:46;14.68;;;3.75;;
60873;SDS011;46715;40.642;-7.920;2024-01-15T11:29:55;14.27;;;4.50;;
60873;SDS011;46715;40.642;-7.920;2024-01-15T11:32:07;15.32;;;4.82;;
60873;SDS011;46715;40.642;-7.920;2024-01-15T11:34:10;12.48;;;3.83;;
60873;SDS011;46715;40.642;-7.920;2024-01-15T11:36:12;7.78;;;3.33;;
60873;SDS011;46715;40.642;-7.920;2024-01-15T11:38:24;7.25;;;3.10;;
60873;SDS011;46715;40.642;-7.920;2024-01-15T11:42:34;7.78;;;2.17;;
60873;SDS011;46715;40.642;-7.920;2024-01-15T11:44:35;7.95;;;1.95;;
60873;SDS011;46715;40.642;-7.920;2024-01-15T11:46:37;5.53;;;2.00;;
60873;SDS011;46715;40.642;-7.920;2024-01-15T11:48:48;5.03;;;2.53;;
60873;SDS011;46715;40.642;-7.920;2024-01-15T11:51:00;5.05;;;1.80;;
60873;SDS011;46715;40.642;-7.920;2024-01-15T11:53:03;5.20;;;2.28;;
60873;SDS011;46715;40.642;-7.920;2024-01-15T11:55:12;7.28;;;2.60;;
60873;SDS011;46715;40.642;-7.920;2024-01-15T11:57:22;9.38;;;3.65;;
60873;SDS011;46715;40.642;-7.920;2024-01-15T11:59:41;9.02;;;4.05;;
60873;SDS011;46715;40.642;-7.920;2024-01-15T12:01:42;12.20;;;4.28;;
60873;SDS011;46715;40.642;-7.920;2024-01-15T12:03:43;13.65;;;3.50;;
60873;SDS011;46715;40.642;-7.920;2024-01-15T12:05:47;11.52;;;4.03;;
60873;SDS011;46715;40.642;-7.920;2024-01-15T12:07:48;11.75;;;4.40;;
60873;SDS011;46715;40.642;-7.920;2024-01-15T12:09:50;13.52;;;4.32;;
60873;SDS011;46715;40.642;-7.920;2024-01-15T12:11:53;10.10;;;4.20;;
60873;SDS011;46715;40.642;-7.920;2024-01-15T12:14:05;10.48;;;3.60;;
60873;SDS011;46715;40.642;-7.920;2024-01-15T12:16:06;8.27;;;3.35;;
60873;SDS011;46715;40.642;-7.920;2024-01-15T12:18:08;9.70;;;3.20;;
60873;SDS011;46715;40.642;-7.920;2024-01-15T12:20:10;10.00;;;3.40;;
60873;SDS011;46715;40.642;-7.920;2024-01-15T12:22:12;9.18;;;3.15;;
60873;SDS011;46715;40.642;-7.920;2024-01-15T12:24:13;11.63;;;3.92;;
60873;SDS011;46715;40.642;-7.920;2024-01-15T12:26:14;12.37;;;3.90;;
60873;SDS011;46715;40.642;-7.920;2024-01-15T12:28:15;6.32;;;3.50;;
60873;SDS011;46715;40.642;-7.920;2024-01-15T12:30:16;10.77;;;4.30;;
60873;SDS011;46715;40.642;-7.920;2024-01-15T12:32:18;7.30;;;3.30;;
60873;SDS011;46715;40.642;-7.920;2024-01-15T12:34:19;5.47;;;3.25;;
60873;SDS011;46715;40.642;-7.920;2024-01-15T12:36:20;6.80;;;3.17;;
60873;SDS011;46715;40.642;-7.920;2024-01-15T12:38:21;5.70;;;3.40;;
60873;SDS011;46715;40.642;-7.920;2024-01-15T12:40:23;7.03;;;3.53;;
60873;SDS011;46715;40.642;-7.920;2024-01-15T12:42:24;8.15;;;3.30;;
60873;SDS011;46715;40.642;-7.920;2024-01-15T12:44:28;4.38;;;2.90;;
60873;SDS011;46715;40.642;-7.920;2024-01-15T12:46:28;5.13;;;2.97;;
60873;SDS011;46715;40.642;-7.920;2024-01-15T12:48:29;2.83;;;2.00;;
60873;SDS011;46715;40.642;-7.920;2024-01-15T12:50:31;4.00;;;1.80;;
60873;SDS011;46715;40.642;-7.920;2024-01-15T12:52:34;2.47;;;1.65;;
60873;SDS011;46715;40.642;-7.920;2024-01-15T12:54:38;4.00;;;1.77;;
60873;SDS011;46715;40.642;-7.920;2024-01-15T12:56:39;2.53;;;1.47;;
60873;SDS011;46715;40.642;-7.920;2024-01-15T12:58:39;2.75;;;1.80;;
60873;SDS011;46715;40.642;-7.920;2024-01-15T13:00:40;4.43;;;1.60;;
60873;SDS011;46715;40.642;-7.920;2024-01-15T13:02:44;3.10;;;1.33;;
60873;SDS011;46715;40.642;-7.920;2024-01-15T13:04:46;3.35;;;1.90;;
60873;SDS011;46715;40.642;-7.920;2024-01-15T13:06:48;3.67;;;1.83;;
60873;SDS011;46715;40.642;-7.920;2024-01-15T13:08:49;2.95;;;2.03;;
60873;SDS011;46715;40.642;-7.920;2024-01-15T13:10:50;5.17;;;1.63;;
60873;SDS011;46715;40.642;-7.920;2024-01-15T13:12:55;3.92;;;1.40;;
60873;SDS011;46715;40.642;-7.920;2024-01-15T13:14:57;3.95;;;2.05;;
60873;SDS011;46715;40.642;-7.920;2024-01-15T13:16:58;2.38;;;1.50;;
60873;SDS011;46715;40.642;-7.920;2024-01-15T13:18:59;2.50;;;1.60;;
60873;SDS011;46715;40.642;-7.920;2024-01-15T13:21:00;3.57;;;1.60;;
60873;SDS011;46715;40.642;-7.920;2024-01-15T13:23:03;1.90;;;1.50;;
60873;SDS011;46715;40.642;-7.920;2024-01-15T13:25:04;3.15;;;1.90;;
60873;SDS011;46715;40.642;-7.920;2024-01-15T13:27:07;2.90;;;2.15;;
60873;SDS011;46715;40.642;-7.920;2024-01-15T13:29:08;3.85;;;3.08;;
60873;SDS011;46715;40.642;-7.920;2024-01-15T13:31:10;3.83;;;2.25;;
60873;SDS011;46715;40.642;-7.920;2024-01-15T13:33:10;4.35;;;2.00;;
60873;SDS011;46715;40.642;-7.920;2024-01-15T13:35:11;3.23;;;1.60;;
60873;SDS011;46715;40.642;-7.920;2024-01-15T13:37:13;1.10;;;0.80;;
60873;SDS011;46715;40.642;-7.920;2024-01-15T13:39:14;3.13;;;0.90;;
60873;SDS011;46715;40.642;-7.920;2024-01-15T13:41:15;1.02;;;0.80;;
60873;SDS011;46715;40.642;-7.920;2024-01-15T13:43:18;2.40;;;0.82;;
60873;SDS011;46715;40.642;-7.920;2024-01-15T13:45:19;2.33;;;0.98;;
60873;SDS011;46715;40.642;-7.920;2024-01-15T13:47:20;1.25;;;1.00;;
60873;SDS011;46715;40.642;-7.920;2024-01-15T13:49:21;4.15;;;1.67;;
60873;SDS011;46715;40.642;-7.920;2024-01-15T13:51:22;1.80;;;1.50;;
60873;SDS011;46715;40.642;-7.920;2024-01-15T13:53:26;2.88;;;1.30;;
60873;SDS011;46715;40.642;-7.920;2024-01-15T13:55:26;1.90;;;1.50;;
60873;SDS011;46715;40.642;-7.920;2024-01-15T13:57:29;4.03;;;2.05;;
60873;SDS011;46715;40.642;-7.920;2024-01-15T13:59:31;3.30;;;2.43;;
60873;SDS011;46715;40.642;-7.920;2024-01-15T14:01:32;3.28;;;1.70;;
60873;SDS011;46715;40.642;-7.920;2024-01-15T14:03:33;3.00;;;2.20;;
60873;SDS011;46715;40.642;-7.920;2024-01-15T14:05:34;3.72;;;1.60;;
60873;SDS011;46715;40.642;-7.920;2024-01-15T14:07:35;5.43;;;2.20;;
60873;SDS011;46715;40.642;-7.920;2024-01-15T14:09:36;2.40;;;1.67;;
60873;SDS011;46715;40.642;-7.920;2024-01-15T14:11:38;3.30;;;2.20;;
60873;SDS011;46715;40.642;-7.920;2024-01-15T14:13:39;3.00;;;1.80;;
60873;SDS011;46715;40.642;-7.920;2024-01-15T14:15:39;2.43;;;1.97;;
60873;SDS011;46715;40.642;-7.920;2024-01-15T14:17:40;2.47;;;1.52;;
60873;SDS011;46715;40.642;-7.920;2024-01-15T14:19:41;2.43;;;2.00;;
60873;SDS011;46715;40.642;-7.920;2024-01-15T14:21:42;4.18;;;2.38;;
60873;SDS011;46715;40.642;-7.920;2024-01-15T14:23:43;5.38;;;2.58;;
60873;SDS011;46715;40.642;-7.920;2024-01-15T14:25:44;4.10;;;2.22;;
60873;SDS011;46715;40.642;-7.920;2024-01-15T14:27:45;4.30;;;2.60;;
60873;SDS011;46715;40.642;-7.920;2024-01-15T14:29:48;2.53;;;1.50;;
60873;SDS011;46715;40.642;-7.920;2024-01-15T14:31:52;3.45;;;2.50;;
60873;SDS011;46715;40.642;-7.920;2024-01-15T14:33:53;3.58;;;2.08;;
60873;SDS011;46715;40.642;-7.920;2024-01-15T14:35:55;4.25;;;1.88;;
60873;SDS011;46715;40.642;-7.920;2024-01-15T14:37:58;2.28;;;2.08;;
60873;SDS011;46715;40.642;-7.920;2024-01-15T14:39:59;3.30;;;2.50;;
60873;SDS011;46715;40.642;-7.920;2024-01-15T14:42:03;2.95;;;2.00;;
60873;SDS011;46715;40.642;-7.920;2024-01-15T14:44:03;2.55;;;1.80;;
60873;SDS011;46715;40.642;-7.920;2024-01-15T14:46:04;2.92;;;1.42;;
60873;SDS011;46715;40.642;-7.920;2024-01-15T14:48:06;5.10;;;2.70;;
60873;SDS011;46715;40.642;-7.920;2024-01-15T14:50:07;3.67;;;2.15;;
60873;SDS011;46715;40.642;-7.920;2024-01-15T14:52:10;3.05;;;2.10;;
60873;SDS011;46715;40.642;-7.920;2024-01-15T14:54:11;2.45;;;2.03;;
60873;SDS011;46715;40.642;-7.920;2024-01-15T14:56:11;3.03;;;2.40;;
60873;SDS011;46715;40.642;-7.920;2024-01-15T14:58:12;2.78;;;2.30;;
60873;SDS011;46715;40.642;-7.920;2024-01-15T15:00:13;3.40;;;2.27;;
60873;SDS011;46715;40.642;-7.920;2024-01-15T15:02:17;3.58;;;2.03;;
60873;SDS011;46715;40.642;-7.920;2024-01-15T15:06:19;2.97;;;1.85;;
60873;SDS011;46715;40.642;-7.920;2024-01-15T15:08:21;2.15;;;1.88;;
60873;SDS011;46715;40.642;-7.920;2024-01-15T15:10:22;4.53;;;2.57;;
60873;SDS011;46715;40.642;-7.920;2024-01-15T15:12:22;2.30;;;2.10;;
60873;SDS011;46715;40.642;-7.920;2024-01-15T15:14:24;3.25;;;2.38;;
60873;SDS011;46715;40.642;-7.920;2024-01-15T15:16:24;5.47;;;3.17;;
60873;SDS011;46715;40.642;-7.920;2024-01-15T15:18:25;7.85;;;2.08;;
60873;SDS011;46715;40.642;-7.920;2024-01-15T15:20:26;7.88;;;5.80;;
60873;SDS011;46715;40.642;-7.920;2024-01-15T15:22:27;4.57;;;4.07;;
60873;SDS011;46715;40.642;-7.920;2024-01-15T15:24:28;5.00;;;4.50;;
60873;SDS011;46715;40.642;-7.920;2024-01-15T15:26:29;2.95;;;2.65;;
60873;SDS011;46715;40.642;-7.920;2024-01-15T15:28:30;2.70;;;2.30;;
60873;SDS011;46715;40.642;-7.920;2024-01-15T15:30:31;3.03;;;2.20;;
60873;SDS011;46715;40.642;-7.920;2024-01-15T15:32:32;3.45;;;2.47;;
60873;SDS011;46715;40.642;-7.920;2024-01-15T15:34:33;3.42;;;3.08;;
60873;SDS011;46715;40.642;-7.920;2024-01-15T15:36:34;4.65;;;3.53;;
60873;SDS011;46715;40.642;-7.920;2024-01-15T15:38:35;4.55;;;3.10;;
60873;SDS011;46715;40.642;-7.920;2024-01-15T15:40:36;5.70;;;3.40;;
60873;SDS011;46715;40.642;-7.920;2024-01-15T15:42:37;3.57;;;2.97;;
60873;SDS011;46715;40.642;-7.920;2024-01-15T15:44:38;5.07;;;3.80;;
60873;SDS011;46715;40.642;-7.920;2024-01-15T15:46:43;2.92;;;2.60;;
60873;SDS011;46715;40.642;-7.920;2024-01-15T15:48:44;3.80;;;3.40;;
60873;SDS011;46715;40.642;-7.920;2024-01-15T15:50:45;4.50;;;4.10;;
60873;SDS011;46715;40.642;-7.920;2024-01-15T15:52:46;6.28;;;4.15;;
60873;SDS011;46715;40.642;-7.920;2024-01-15T15:54:46;4.88;;;4.38;;
60873;SDS011;46715;40.642;-7.920;2024-01-15T15:56:47;3.40;;;2.97;;
60873;SDS011;46715;40.642;-7.920;2024-01-15T15:58:50;4.40;;;3.67;;
60873;SDS011;46715;40.642;-7.920;2024-01-15T16:00:51;4.13;;;3.40;;
60873;SDS011;46715;40.642;-7.920;2024-01-15T16:02:52;4.40;;;3.80;;
60873;SDS011;46715;40.642;-7.920;2024-01-15T16:04:53;3.70;;;3.13;;
60873;SDS011;46715;40.642;-7.920;2024-01-15T16:06:55;5.25;;;3.53;;
60873;SDS011;46715;40.642;-7.920;2024-01-15T16:08:56;4.18;;;3.60;;
60873;SDS011;46715;40.642;-7.920;2024-01-15T16:10:57;4.40;;;3.40;;
60873;SDS011;46715;40.642;-7.920;2024-01-15T16:12:59;3.70;;;3.00;;
60873;SDS011;46715;40.642;-7.920;2024-01-15T16:15:00;3.00;;;2.60;;
60873;SDS011;46715;40.642;-7.920;2024-01-15T16:17:02;2.95;;;2.42;;
60873;SDS011;46715;40.642;-7.920;2024-01-15T16:19:02;2.60;;;2.30;;
60873;SDS011;46715;40.642;-7.920;2024-01-15T16:21:03;3.78;;;3.15;;
60873;SDS011;46715;40.642;-7.920;2024-01-15T16:23:04;2.72;;;2.13;;
60873;SDS011;46715;40.642;-7.920;2024-01-15T16:25:05;2.87;;;2.57;;